createdAt,value
2022-08-04T00:02:11.224Z,100887.09
2022-08-04T00:04:45.724Z,100886.97
2022-08-04T00:07:20.029Z,100885.31
2022-08-04T00:10:09.036Z,100890.34
2022-08-04T00:12:45.184Z,100881.25
2022-08-04T00:15:16.706Z,100887.53
2022-08-04T00:17:47.724Z,100884.22
2022-08-04T00:20:20.403Z,100881.53
2022-08-04T00:22:49.909Z,100880.72
2022-08-04T00:25:17.890Z,100882.53
2022-08-04T00:27:47.685Z,100878.81
2022-08-04T00:30:15.726Z,100885.44
2022-08-04T00:32:43.887Z,100882.50
2022-08-04T00:35:14.801Z,100878.38
2022-08-04T00:37:46.107Z,100877.31
2022-08-04T00:40:25.735Z,100886.59
2022-08-04T00:43:11.439Z,100881.22
2022-08-04T00:46:16.710Z,100888.69
2022-08-04T00:49:02.678Z,100882.06
2022-08-04T00:51:44.707Z,100881.28
2022-08-04T00:54:18.960Z,100882.31
2022-08-04T00:57:04.495Z,100876.19
2022-08-04T00:59:52.267Z,100874.97
2022-08-04T01:02:29.872Z,100881.06
2022-08-04T01:05:05.429Z,100872.63
2022-08-04T01:07:51.428Z,100878.44
2022-08-04T01:10:27.145Z,100881.91
2022-08-04T01:13:21.145Z,100882.72
2022-08-04T01:16:00.665Z,100876.34
2022-08-04T01:18:35.491Z,100880.31
2022-08-04T01:21:24.144Z,100880.47
2022-08-04T01:24:16.110Z,100883.72
2022-08-04T01:26:57.791Z,100878.06
2022-08-04T01:29:43.880Z,100884.13
2022-08-04T01:32:25.820Z,100884.13
2022-08-04T01:35:03.559Z,100878.31
2022-08-04T01:37:52.284Z,100881.56
2022-08-04T01:40:22.870Z,100883.34
2022-08-04T01:42:54.321Z,100880.00
2022-08-04T01:45:26.152Z,100877.03
2022-08-04T01:47:56.419Z,100876.78
2022-08-04T01:50:27.807Z,100879.84
2022-08-04T01:52:56.912Z,100879.84
2022-08-04T01:55:54.330Z,100881.72
2022-08-04T01:58:15.420Z,100886.16
2022-08-04T02:00:56.702Z,100886.53
2022-08-04T02:04:19.703Z,100877.94
2022-08-04T02:06:23.936Z,100885.34
2022-08-04T02:08:59.862Z,100878.63
2022-08-04T02:11:27.677Z,100877.59
2022-08-04T02:14:03.116Z,100869.84
2022-08-04T02:16:43.981Z,100866.16
2022-08-04T02:19:22.750Z,100876.88
2022-08-04T02:21:58.209Z,100874.09
2022-08-04T02:24:28.926Z,100868.94
2022-08-04T02:26:57.964Z,100868.84
2022-08-04T02:29:36.089Z,100868.03
2022-08-04T02:32:07.491Z,100871.06
2022-08-04T02:34:44.010Z,100864.31
2022-08-04T02:37:12.522Z,100869.75
2022-08-04T02:39:49.229Z,100859.78
2022-08-04T02:42:18.475Z,100859.78
2022-08-04T02:44:50.958Z,100859.44
2022-08-04T02:47:22.532Z,100857.75
2022-08-04T02:49:52.037Z,100857.31
2022-08-04T02:52:22.144Z,100855.44
2022-08-04T02:54:54.267Z,100849.00
2022-08-04T02:57:25.410Z,100850.09
2022-08-04T03:00:07.685Z,100853.41
2022-08-04T03:03:01.342Z,100851.63
2022-08-04T03:06:00.447Z,100852.16
2022-08-04T03:08:53.676Z,100852.00
2022-08-04T03:11:53.219Z,100849.88
2022-08-04T03:14:44.628Z,100851.78
2022-08-04T03:17:52.355Z,100856.88
2022-08-04T03:20:55.538Z,100856.50
2022-08-04T03:24:20.137Z,100854.94
2022-08-04T03:27:08.141Z,100857.94
2022-08-04T03:30:07.230Z,100861.19
2022-08-04T03:33:15.646Z,100855.84
2022-08-04T03:36:27.258Z,100862.31
2022-08-04T03:39:33.269Z,100858.72
2022-08-04T03:42:27.649Z,100865.72
2022-08-04T03:45:24.472Z,100861.75
2022-08-04T03:48:10.708Z,100856.13
2022-08-04T03:51:35.358Z,100863.97
2022-08-04T03:54:25.317Z,100860.28
2022-08-04T03:57:10.575Z,100866.91
2022-08-04T04:00:01.450Z,100866.03
2022-08-04T04:03:02.736Z,100861.34
2022-08-04T04:05:59.748Z,100861.56
2022-08-04T04:08:46.844Z,100863.50
2022-08-04T04:11:56.421Z,100857.75
2022-08-04T04:14:49.766Z,100860.88
2022-08-04T04:17:50.432Z,100862.63
2022-08-04T04:20:48.039Z,100854.41
2022-08-04T04:23:32.750Z,100858.22
2022-08-04T04:26:19.837Z,100855.00
2022-08-04T04:29:03.637Z,100866.16
2022-08-04T04:31:47.336Z,100868.06
2022-08-04T04:34:32.518Z,100867.22
2022-08-04T04:37:16.235Z,100871.44
2022-08-04T04:39:56.603Z,100871.31
2022-08-04T04:42:39.793Z,100867.09
2022-08-04T04:45:23.209Z,100872.09
2022-08-04T04:48:09.047Z,100862.53
2022-08-04T04:50:51.081Z,100867.22
2022-08-04T04:53:28.427Z,100876.47
2022-08-04T04:56:06.581Z,100870.03
2022-08-04T04:58:36.975Z,100870.66
2022-08-04T05:01:25.515Z,100870.38
2022-08-04T05:04:17.447Z,100870.44
2022-08-04T05:06:55.749Z,100867.38
2022-08-04T05:09:33.044Z,100872.25
2022-08-04T05:14:31.470Z,100868.75
2022-08-04T05:15:28.654Z,100878.44
2022-08-04T05:18:00.027Z,100874.94
2022-08-04T05:20:35.533Z,100876.13
2022-08-04T05:23:09.077Z,100878.53
2022-08-04T05:25:41.784Z,100879.34
2022-08-04T05:28:23.014Z,100872.78
2022-08-04T05:30:55.669Z,100870.66
2022-08-04T05:33:33.670Z,100868.53
2022-08-04T05:36:20.867Z,100869.69
2022-08-04T05:38:55.261Z,100867.00
2022-08-04T05:41:23.899Z,100874.91
2022-08-04T05:44:02.570Z,100874.53
2022-08-04T05:46:31.881Z,100877.16
2022-08-04T05:49:01.292Z,100878.19
2022-08-04T05:51:33.830Z,100879.31
2022-08-04T05:54:03.397Z,100875.19
2022-08-04T05:56:33.382Z,100886.06
2022-08-04T05:59:03.950Z,100874.75
2022-08-04T06:01:32.582Z,100875.69
2022-08-04T06:04:24.009Z,100877.34
2022-08-04T06:06:53.236Z,100878.75
2022-08-04T06:09:21.209Z,100873.81
2022-08-04T06:12:03.373Z,100875.09
2022-08-04T06:14:36.807Z,100873.75
2022-08-04T06:18:34.030Z,100881.16
2022-08-04T06:20:19.910Z,100879.00
2022-08-04T06:22:48.892Z,100882.81
2022-08-04T06:25:20.785Z,100878.31
2022-08-04T06:27:50.375Z,100879.56
2022-08-04T06:30:19.321Z,100877.72
2022-08-04T06:33:04.283Z,100878.97
2022-08-04T06:35:35.187Z,100881.34
2022-08-04T06:38:04.016Z,100885.75
2022-08-04T06:40:34.494Z,100881.44
2022-08-04T06:43:04.297Z,100885.44
2022-08-04T06:45:35.258Z,100886.13
2022-08-04T06:48:04.357Z,100882.00
2022-08-04T06:51:32.469Z,100879.34
2022-08-04T06:53:23.836Z,100876.88
2022-08-04T06:55:52.835Z,100881.06
2022-08-04T06:58:23.953Z,100879.63
2022-08-04T07:00:52.740Z,100883.56
2022-08-04T07:03:21.830Z,100884.19
2022-08-04T07:05:52.777Z,100878.38
2022-08-04T07:08:21.619Z,100881.69
2022-08-04T07:10:50.325Z,100881.88
2022-08-04T07:13:19.818Z,100880.84
2022-08-04T07:15:49.501Z,100886.63
2022-08-04T07:18:17.821Z,100875.63
2022-08-04T07:20:47.227Z,100881.22
2022-08-04T07:23:19.662Z,100882.00
2022-08-04T07:25:58.585Z,100878.03
2022-08-04T07:28:41.061Z,100876.13
2022-08-04T07:31:33.758Z,100878.38
2022-08-04T07:34:17.155Z,100872.94
2022-08-04T07:36:52.757Z,100873.47
2022-08-04T07:39:28.700Z,100871.09
2022-08-04T07:42:01.191Z,100865.69
2022-08-04T07:44:30.964Z,100874.47
2022-08-04T07:46:59.263Z,100868.09
2022-08-04T07:49:54.196Z,100867.34
2022-08-04T07:52:16.488Z,100873.41
2022-08-04T07:54:46.580Z,100863.94
2022-08-04T07:57:18.589Z,100863.00
2022-08-04T07:59:50.147Z,100869.31
2022-08-04T08:02:20.109Z,100862.66
2022-08-04T08:04:48.183Z,100861.25
2022-08-04T08:07:16.083Z,100861.84
2022-08-04T08:09:45.401Z,100857.31
2022-08-04T08:12:37.746Z,100850.50
2022-08-04T08:15:02.674Z,100855.00
2022-08-04T08:17:30.692Z,100847.19
2022-08-04T08:19:58.651Z,100855.41
2022-08-04T08:22:26.735Z,100848.91
2022-08-04T08:24:56.377Z,100848.06
2022-08-04T08:27:24.543Z,100845.41
2022-08-04T08:29:52.748Z,100846.41
2022-08-04T08:32:21.188Z,100845.63
2022-08-04T08:34:49.538Z,100846.81
2022-08-04T08:37:26.609Z,100844.63
2022-08-04T08:40:02.248Z,100838.88
2022-08-04T08:42:48.520Z,100843.72
2022-08-04T08:45:52.915Z,100841.59
2022-08-04T08:48:47.761Z,100844.50
2022-08-04T08:51:39.752Z,100836.03
2022-08-04T08:54:45.278Z,100834.66
2022-08-04T08:57:34.887Z,100833.78
2022-08-04T09:00:10.665Z,100830.44
2022-08-04T09:03:07.313Z,100826.84
2022-08-04T09:05:53.060Z,100825.41
2022-08-04T09:08:31.847Z,100837.88
2022-08-04T09:11:04.588Z,100833.78
2022-08-04T09:13:41.426Z,100835.53
2022-08-04T09:16:17.306Z,100837.88
2022-08-04T09:18:49.331Z,100832.94
2022-08-04T09:21:24.783Z,100838.25
2022-08-04T09:24:00.446Z,100839.91
2022-08-04T09:26:33.094Z,100841.16
2022-08-04T09:29:09.492Z,100836.63
2022-08-04T09:31:52.923Z,100833.75
2022-08-04T09:34:45.062Z,100838.34
2022-08-04T09:37:21.262Z,100829.72
2022-08-04T09:40:03.342Z,100832.22
2022-08-04T09:42:39.288Z,100830.84
2022-08-04T09:45:26.499Z,100822.72
2022-08-04T09:48:06.295Z,100828.91
2022-08-04T09:50:38.607Z,100834.72
2022-08-04T09:53:21.731Z,100831.03
2022-08-04T09:56:03.068Z,100832.75
2022-08-04T09:58:45.114Z,100834.75
2022-08-04T10:01:22.804Z,100820.59
2022-08-04T10:03:53.953Z,100823.38
2022-08-04T10:06:47.101Z,100828.22
2022-08-04T10:09:29.708Z,100822.84
2022-08-04T10:12:09.542Z,100815.88
2022-08-04T10:14:52.639Z,100812.72
2022-08-04T10:17:38.802Z,100802.84
2022-08-04T10:20:33.783Z,100802.03
2022-08-04T10:23:14.239Z,100807.38
2022-08-04T10:26:07.310Z,100802.72
2022-08-04T10:28:38.915Z,100806.13
2022-08-04T10:31:10.921Z,100801.59
2022-08-04T10:33:50.526Z,100803.47
2022-08-04T10:36:23.861Z,100797.75
2022-08-04T10:39:00.760Z,100783.81
2022-08-04T10:41:34.510Z,100804.25
2022-08-04T10:44:15.978Z,100793.56
2022-08-04T10:46:48.653Z,100784.25
2022-08-04T10:49:24.992Z,100797.00
2022-08-04T10:52:00.459Z,100787.53
2022-08-04T10:54:32.819Z,100783.88
2022-08-04T10:57:09.630Z,100776.63
2022-08-04T10:59:44.425Z,100779.94
2022-08-04T11:02:28.155Z,100787.91
2022-08-04T11:05:07.457Z,100778.81
2022-08-04T11:07:39.354Z,100784.25
2022-08-04T11:10:09.057Z,100783.38
2022-08-04T11:12:39.116Z,100772.63
2022-08-04T11:15:13.267Z,100767.38
2022-08-04T11:17:44.954Z,100767.44
2022-08-04T11:20:34.738Z,100765.91
2022-08-04T11:23:09.054Z,100770.19
2022-08-04T11:25:52.156Z,100772.06
2022-08-04T11:28:32.431Z,100767.53
2022-08-04T11:31:06.884Z,100775.53
2022-08-04T11:33:42.333Z,100764.84
2022-08-04T11:36:23.646Z,100765.25
2022-08-04T11:38:57.831Z,100774.22
2022-08-04T11:41:40.189Z,100765.91
2022-08-04T11:44:13.052Z,100762.03
2022-08-04T11:46:44.262Z,100760.28
2022-08-04T11:49:25.189Z,100764.94
2022-08-04T11:51:57.040Z,100764.09
2022-08-04T11:54:25.025Z,100769.78
2022-08-04T11:56:53.393Z,100762.25
2022-08-04T11:59:24.826Z,100766.38
2022-08-04T12:02:06.625Z,100760.41
2022-08-04T12:04:44.505Z,100752.69
2022-08-04T12:07:41.234Z,100756.81
2022-08-04T12:10:38.067Z,100751.56
2022-08-04T12:13:20.030Z,100754.06
2022-08-04T12:16:11.862Z,100756.41
2022-08-04T12:18:41.532Z,100752.97
2022-08-04T12:21:15.818Z,100758.00
2022-08-04T12:23:48.384Z,100751.88
2022-08-04T12:26:31.381Z,100753.91
2022-08-04T12:29:10.638Z,100763.47
2022-08-04T12:31:46.222Z,100751.50
2022-08-04T12:34:17.784Z,100734.03
2022-08-04T12:36:55.695Z,100732.47
2022-08-04T12:39:27.939Z,100751.25
2022-08-04T12:42:03.263Z,100742.47
2022-08-04T12:44:37.841Z,100730.34
2022-08-04T12:47:26.934Z,100732.75
2022-08-04T12:50:02.750Z,100721.00
2022-08-04T12:52:59.035Z,100715.88
2022-08-04T12:55:26.155Z,100713.50
2022-08-04T12:57:55.841Z,100718.28
2022-08-04T13:00:29.857Z,100719.53
2022-08-04T13:03:10.223Z,100713.78
2022-08-04T13:05:41.571Z,100703.00
2022-08-04T13:08:11.181Z,100702.06
2022-08-04T13:10:43.112Z,100699.03
2022-08-04T13:13:17.757Z,100698.19
2022-08-04T13:15:57.041Z,100710.47
2022-08-04T13:18:29.933Z,100695.78
2022-08-04T13:24:19.064Z,100699.31
2022-08-04T13:26:56.795Z,100700.34
2022-08-04T13:30:25.195Z,100690.75
2022-08-04T13:30:25.195Z,100686.84
2022-08-04T13:32:22.263Z,100688.22
2022-08-04T13:34:53.447Z,100684.56
2022-08-04T13:37:25.263Z,100690.13
2022-08-04T13:39:55.682Z,100684.84
2022-08-04T13:42:27.432Z,100683.38
2022-08-04T13:44:57.851Z,100675.03
2022-08-04T13:47:30.395Z,100681.94
2022-08-04T13:50:11.189Z,100676.47
2022-08-04T13:52:41.805Z,100684.19
2022-08-04T13:55:19.111Z,100672.31
2022-08-04T13:57:53.853Z,100662.94
2022-08-04T14:00:30.173Z,100663.84
2022-08-04T14:03:02.674Z,100653.88
2022-08-04T14:05:36.969Z,100663.34
2022-08-04T14:08:24.107Z,100657.44
2022-08-04T14:10:56.514Z,100644.00
2022-08-04T14:13:41.767Z,100649.31
2022-08-04T14:16:20.936Z,100640.16
2022-08-04T14:18:58.209Z,100645.28
2022-08-04T14:21:26.180Z,100640.94
2022-08-04T14:23:56.006Z,100640.44
2022-08-04T14:26:30.006Z,100641.97
2022-08-04T14:29:26.884Z,100641.28
2022-08-04T14:32:03.127Z,100639.25
2022-08-04T14:34:33.381Z,100636.09
2022-08-04T14:37:17.545Z,100631.13
2022-08-04T14:40:17.436Z,100625.72
2022-08-04T14:42:55.644Z,100624.63
2022-08-04T14:45:34.175Z,100633.44
2022-08-04T14:48:03.568Z,100634.59
2022-08-04T14:50:36.677Z,100625.13
2022-08-04T14:53:07.167Z,100630.19
2022-08-04T14:55:35.228Z,100627.34
2022-08-04T14:58:37.867Z,100623.84
2022-08-04T15:00:55.720Z,100627.78
2022-08-04T15:03:24.467Z,100617.00
2022-08-04T15:06:01.850Z,100615.91
2022-08-04T15:08:34.094Z,100621.28
2022-08-04T15:11:03.287Z,100615.63
2022-08-04T15:13:33.204Z,100615.88
2022-08-04T15:16:07.710Z,100606.47
2022-08-04T15:18:39.094Z,100610.13
2022-08-04T15:21:08.537Z,100612.16
2022-08-04T15:23:39.655Z,100602.19
2022-08-04T15:26:13.403Z,100605.44
2022-08-04T15:28:45.735Z,100608.03
2022-08-04T15:32:07.000Z,100605.41
2022-08-04T15:34:05.405Z,100598.84
2022-08-04T15:36:39.606Z,100594.38
2022-08-04T15:39:21.102Z,100587.94
2022-08-04T15:42:03.813Z,100590.50
2022-08-04T15:45:00.445Z,100592.34
2022-08-04T15:47:29.769Z,100590.31
2022-08-04T15:50:06.649Z,100582.25
2022-08-04T15:53:10.085Z,100588.88
2022-08-04T15:55:41.659Z,100584.41
2022-08-04T15:58:12.837Z,100577.25
2022-08-04T16:01:15.406Z,100573.63
2022-08-04T16:03:59.263Z,100581.25
2022-08-04T16:06:46.565Z,100586.44
2022-08-04T16:09:45.574Z,100577.69
2022-08-04T16:12:54.843Z,100578.91
2022-08-04T16:15:38.262Z,100578.72
2022-08-04T16:18:13.722Z,100578.47
2022-08-04T16:20:57.725Z,100565.34
2022-08-04T16:24:03.698Z,100569.94
2022-08-04T16:26:54.757Z,100564.50
2022-08-04T16:29:42.802Z,100562.44
2022-08-04T16:32:16.607Z,100557.31
2022-08-04T16:34:55.085Z,100565.56
2022-08-04T16:37:33.688Z,100565.22
2022-08-04T16:40:35.155Z,100563.84
2022-08-04T16:43:06.954Z,100562.53
2022-08-04T16:45:46.677Z,100562.72
2022-08-04T16:48:15.776Z,100563.56
2022-08-04T16:50:53.079Z,100559.84
2022-08-04T16:53:52.703Z,100554.47
2022-08-04T16:56:14.499Z,100559.47
2022-08-04T16:58:53.097Z,100551.13
2022-08-04T17:01:33.096Z,100560.44
2022-08-04T17:04:06.116Z,100559.81
2022-08-04T17:06:36.144Z,100558.47
2022-08-04T17:09:10.322Z,100547.69
2022-08-04T17:11:38.479Z,100561.81
2022-08-04T17:14:07.044Z,100555.63
2022-08-04T17:16:36.908Z,100555.84
2022-08-04T17:19:06.568Z,100562.28
2022-08-04T17:21:37.687Z,100551.53
2022-08-04T17:24:14.838Z,100550.25
2022-08-04T17:26:53.726Z,100550.78
2022-08-04T17:29:42.263Z,100557.22
2022-08-04T17:32:18.719Z,100547.81
2022-08-04T17:34:50.966Z,100552.25
2022-08-04T17:37:38.373Z,100551.03
2022-08-04T17:40:11.069Z,100552.56
2022-08-04T17:42:41.397Z,100555.06
2022-08-04T17:48:00.244Z,100555.25
2022-08-04T17:50:30.111Z,100554.47
2022-08-04T17:53:02.077Z,100550.06
2022-08-04T17:55:42.694Z,100556.09
2022-08-04T17:58:20.884Z,100551.41
2022-08-04T18:01:10.723Z,100544.16
2022-08-04T18:03:53.482Z,100547.38
2022-08-04T18:06:25.644Z,100550.00
2022-08-04T18:08:57.878Z,100536.59
2022-08-04T18:11:29.877Z,100541.94
2022-08-04T18:14:10.483Z,100540.47
2022-08-04T18:16:44.504Z,100534.97
2022-08-04T18:19:14.434Z,100536.72
2022-08-04T18:21:46.808Z,100532.72
2022-08-04T18:24:35.256Z,100529.47
2022-08-04T18:27:22.262Z,100530.53
2022-08-04T18:30:34.124Z,100533.69
2022-08-04T18:32:56.384Z,100535.22
2022-08-04T18:36:31.521Z,100526.63
2022-08-04T18:38:22.662Z,100528.09
2022-08-04T18:40:52.918Z,100526.81
2022-08-04T18:43:28.348Z,100523.97
2022-08-04T18:45:59.513Z,100529.50
2022-08-04T18:48:36.710Z,100531.50
2022-08-04T18:51:10.209Z,100533.53
2022-08-04T18:53:44.856Z,100534.28
2022-08-04T18:56:30.073Z,100538.78
2022-08-04T18:59:03.842Z,100538.38
2022-08-04T19:02:12.317Z,100542.69
2022-08-04T19:04:32.357Z,100539.81
2022-08-04T19:07:23.510Z,100538.63
2022-08-04T19:09:52.005Z,100540.13
2022-08-04T19:12:26.656Z,100530.53
2022-08-04T19:14:58.077Z,100537.78
2022-08-04T19:17:53.187Z,100534.75
2022-08-04T19:20:25.523Z,100538.22
2022-08-04T19:24:30.066Z,100540.59
2022-08-04T19:26:03.814Z,100543.59
2022-08-04T19:28:31.790Z,100548.09
2022-08-04T19:31:04.737Z,100545.53
2022-08-04T19:33:58.662Z,100553.09
2022-08-04T19:36:28.496Z,100548.25
2022-08-04T19:39:00.888Z,100549.97
2022-08-04T19:41:32.075Z,100539.88
2022-08-04T19:43:59.992Z,100545.56
2022-08-04T19:46:30.007Z,100553.03
2022-08-04T19:49:00.370Z,100550.66
2022-08-04T19:51:30.239Z,100547.13
2022-08-04T19:54:02.711Z,100552.31
2022-08-04T19:56:40.668Z,100554.09
2022-08-04T19:59:09.862Z,100549.16
2022-08-04T20:01:45.810Z,100552.06
2022-08-04T20:04:14.666Z,100551.28
2022-08-04T20:06:43.536Z,100547.84
2022-08-04T20:09:24.938Z,100555.19
2022-08-04T20:12:00.288Z,100552.72
2022-08-04T20:14:32.882Z,100557.25
2022-08-04T20:17:10.319Z,100557.00
2022-08-04T20:19:39.548Z,100555.56
2022-08-04T20:25:01.005Z,100555.34
2022-08-04T20:28:00.235Z,100549.94
2022-08-04T20:30:29.490Z,100547.63
2022-08-04T20:33:00.786Z,100549.66
2022-08-04T20:35:29.772Z,100549.09
2022-08-04T20:38:00.906Z,100547.09
2022-08-04T20:40:30.020Z,100540.97
2022-08-04T20:42:58.458Z,100540.75
2022-08-04T20:45:55.712Z,100544.16
2022-08-04T20:48:16.514Z,100543.34
2022-08-04T20:50:46.197Z,100543.00
2022-08-04T20:53:16.554Z,100547.81
2022-08-04T20:55:55.401Z,100543.72
2022-08-04T20:58:27.105Z,100548.00
2022-08-04T21:00:55.962Z,100546.09
2022-08-04T21:03:49.297Z,100548.81
2022-08-04T21:06:14.307Z,100543.88
2022-08-04T21:08:56.819Z,100543.09
2022-08-04T21:11:32.436Z,100543.59
2022-08-04T21:14:01.624Z,100544.66
2022-08-04T21:16:55.997Z,100547.47
2022-08-04T21:22:10.217Z,100552.09
2022-08-04T21:24:40.030Z,100557.06
2022-08-04T21:27:09.643Z,100559.56
2022-08-04T21:29:38.287Z,100565.50
2022-08-04T21:32:08.625Z,100573.84
2022-08-04T21:34:40.124Z,100575.84
2022-08-04T21:37:10.415Z,100582.66
2022-08-04T21:39:51.051Z,100569.91
2022-08-04T21:42:30.160Z,100573.72
2022-08-04T21:44:58.769Z,100569.31
2022-08-04T21:47:26.910Z,100560.03
2022-08-04T21:50:20.096Z,100574.88
2022-08-04T21:52:49.083Z,100567.50
2022-08-04T21:55:17.704Z,100568.56
2022-08-04T21:57:49.308Z,100568.50
2022-08-04T22:00:19.674Z,100578.34
2022-08-04T22:02:53.401Z,100576.09
2022-08-04T22:05:24.148Z,100570.38
2022-08-04T22:07:52.447Z,100566.06
2022-08-04T22:10:32.033Z,100574.06
2022-08-04T22:13:06.742Z,100568.00
2022-08-04T22:16:03.387Z,100578.00
2022-08-04T22:18:24.643Z,100577.22
2022-08-04T22:20:57.206Z,100579.78
2022-08-04T22:23:26.197Z,100576.25
2022-08-04T22:25:56.099Z,100576.25
2022-08-04T22:28:28.483Z,100575.53
2022-08-04T22:30:57.253Z,100571.19
2022-08-04T22:33:53.789Z,100564.84
2022-08-04T22:36:16.852Z,100559.53
2022-08-04T22:38:48.874Z,100561.41
2022-08-04T22:41:21.895Z,100559.69
2022-08-04T22:44:01.974Z,100555.88
2022-08-04T22:46:31.031Z,100562.06
2022-08-04T22:48:59.138Z,100560.34
2022-08-04T22:51:28.866Z,100557.59
2022-08-04T22:53:58.182Z,100559.84
2022-08-04T22:56:38.572Z,100554.41
2022-08-04T22:59:11.324Z,100558.00
2022-08-04T23:01:59.126Z,100553.91
2022-08-04T23:04:27.937Z,100554.59
2022-08-04T23:07:12.008Z,100554.59
2022-08-04T23:09:51.035Z,100551.28
2022-08-04T23:12:25.157Z,100557.16
2022-08-04T23:14:55.041Z,100546.34
2022-08-04T23:17:23.315Z,100542.75
2022-08-04T23:19:57.345Z,100550.22
2022-08-04T23:22:41.560Z,100544.94
2022-08-04T23:25:15.328Z,100542.91
2022-08-04T23:27:51.170Z,100539.53
2022-08-04T23:30:21.700Z,100539.72
2022-08-04T23:32:52.932Z,100535.41
2022-08-04T23:35:26.536Z,100527.53
2022-08-04T23:38:31.696Z,100524.69
2022-08-04T23:41:06.359Z,100533.00
2022-08-04T23:43:38.656Z,100530.41
2022-08-04T23:46:36.043Z,100531.34
2022-08-04T23:49:16.751Z,100524.94
2022-08-04T23:51:44.804Z,100525.97
2022-08-04T23:54:25.887Z,100527.03
2022-08-04T23:57:17.213Z,100527.22
2022-08-04T23:59:52.234Z,100518.84
